sensor_id;sensor_type;location;lat;lon;timestamp;temperature;humidity
20885;DHT22;10602;48.000;9.654;2023-10-08T00:00:26;12.50;77.70
20885;DHT22;10602;48.000;9.654;2023-10-08T00:03:08;12.40;80.80
20885;DHT22;10602;48.000;9.654;2023-10-08T00:05:37;12.40;88.50
20885;DHT22;10602;48.000;9.654;2023-10-08T00:08:06;12.40;85.90
20885;DHT22;10602;48.000;9.654;2023-10-08T00:10:37;12.30;88.30
20885;DHT22;10602;48.000;9.654;2023-10-08T00:13:07;12.30;90.60
20885;DHT22;10602;48.000;9.654;2023-10-08T00:15:36;12.20;93.70
20885;DHT22;10602;48.000;9.654;2023-10-08T00:18:04;12.10;92.90
20885;DHT22;10602;48.000;9.654;2023-10-08T00:20:34;12.00;93.60
20885;DHT22;10602;48.000;9.654;2023-10-08T00:23:19;11.90;99.90
20885;DHT22;10602;48.000;9.654;2023-10-08T00:25:46;11.90;99.90
20885;DHT22;10602;48.000;9.654;2023-10-08T00:28:16;11.90;99.90
20885;DHT22;10602;48.000;9.654;2023-10-08T00:30:43;11.80;99.90
20885;DHT22;10602;48.000;9.654;2023-10-08T00:33:11;11.90;99.90
20885;DHT22;10602;48.000;9.654;2023-10-08T00:35:40;11.80;99.90
20885;DHT22;10602;48.000;9.654;2023-10-08T00:38:08;11.70;99.90
20885;DHT22;10602;48.000;9.654;2023-10-08T00:40:38;11.60;99.90
20885;DHT22;10602;48.000;9.654;2023-10-08T00:43:06;11.50;99.90
20885;DHT22;10602;48.000;9.654;2023-10-08T00:45:36;11.50;99.90
20885;DHT22;10602;48.000;9.654;2023-10-08T00:48:05;11.50;99.90
20885;DHT22;10602;48.000;9.654;2023-10-08T00:50:33;11.50;99.90
20885;DHT22;10602;48.000;9.654;2023-10-08T00:53:02;11.50;99.90
20885;DHT22;10602;48.000;9.654;2023-10-08T00:55:32;11.50;99.90
20885;DHT22;10602;48.000;9.654;2023-10-08T00:58:00;11.40;99.90
20885;DHT22;10602;48.000;9.654;2023-10-08T01:00:39;11.40;99.90
20885;DHT22;10602;48.000;9.654;2023-10-08T01:03:08;11.30;99.90
20885;DHT22;10602;48.000;9.654;2023-10-08T01:05:42;11.30;99.90
20885;DHT22;10602;48.000;9.654;2023-10-08T01:08:11;11.30;99.90
20885;DHT22;10602;48.000;9.654;2023-10-08T01:10:41;11.20;99.90
20885;DHT22;10602;48.000;9.654;2023-10-08T01:13:11;11.10;99.90
20885;DHT22;10602;48.000;9.654;2023-10-08T01:15:40;11.10;99.90
20885;DHT22;10602;48.000;9.654;2023-10-08T01:18:09;11.10;99.90
20885;DHT22;10602;48.000;9.654;2023-10-08T01:20:44;11.00;99.90
20885;DHT22;10602;48.000;9.654;2023-10-08T01:23:16;11.00;99.90
20885;DHT22;10602;48.000;9.654;2023-10-08T01:25:50;11.00;99.90
20885;DHT22;10602;48.000;9.654;2023-10-08T01:28:19;11.00;99.90
20885;DHT22;10602;48.000;9.654;2023-10-08T01:30:56;11.00;99.90
20885;DHT22;10602;48.000;9.654;2023-10-08T01:33:25;11.00;99.90
20885;DHT22;10602;48.000;9.654;2023-10-08T01:36:01;11.00;99.90
20885;DHT22;10602;48.000;9.654;2023-10-08T01:38:32;11.00;99.90
20885;DHT22;10602;48.000;9.654;2023-10-08T01:41:02;11.00;99.90
20885;DHT22;10602;48.000;9.654;2023-10-08T01:43:31;11.00;99.90
20885;DHT22;10602;48.000;9.654;2023-10-08T01:46:01;11.00;99.90
20885;DHT22;10602;48.000;9.654;2023-10-08T01:48:28;11.00;99.90
20885;DHT22;10602;48.000;9.654;2023-10-08T01:50:58;11.00;99.90
20885;DHT22;10602;48.000;9.654;2023-10-08T01:53:28;11.10;99.90
20885;DHT22;10602;48.000;9.654;2023-10-08T01:55:57;11.10;99.90
20885;DHT22;10602;48.000;9.654;2023-10-08T01:58:24;11.10;99.90
20885;DHT22;10602;48.000;9.654;2023-10-08T02:00:53;11.20;99.90
20885;DHT22;10602;48.000;9.654;2023-10-08T02:03:23;11.10;99.90
20885;DHT22;10602;48.000;9.654;2023-10-08T02:05:50;11.20;99.90
20885;DHT22;10602;48.000;9.654;2023-10-08T02:08:20;11.20;99.90
20885;DHT22;10602;48.000;9.654;2023-10-08T02:10:47;11.20;99.90
20885;DHT22;10602;48.000;9.654;2023-10-08T02:13:15;11.30;99.90
20885;DHT22;10602;48.000;9.654;2023-10-08T02:15:45;11.20;99.90
20885;DHT22;10602;48.000;9.654;2023-10-08T02:18:14;11.10;99.90
20885;DHT22;10602;48.000;9.654;2023-10-08T02:20:41;11.10;99.90
20885;DHT22;10602;48.000;9.654;2023-10-08T02:23:10;11.10;99.90
20885;DHT22;10602;48.000;9.654;2023-10-08T02:25:40;11.10;99.90
20885;DHT22;10602;48.000;9.654;2023-10-08T02:28:08;11.00;99.90
20885;DHT22;10602;48.000;9.654;2023-10-08T02:30:36;11.00;99.90
20885;DHT22;10602;48.000;9.654;2023-10-08T02:33:08;11.00;99.90
20885;DHT22;10602;48.000;9.654;2023-10-08T02:35:43;11.00;99.90
20885;DHT22;10602;48.000;9.654;2023-10-08T02:38:12;11.00;99.90
20885;DHT22;10602;48.000;9.654;2023-10-08T02:40:41;11.00;99.90
20885;DHT22;10602;48.000;9.654;2023-10-08T02:43:14;11.00;99.90
20885;DHT22;10602;48.000;9.654;2023-10-08T02:45:43;10.90;99.90
20885;DHT22;10602;48.000;9.654;2023-10-08T02:48:12;10.90;99.90
20885;DHT22;10602;48.000;9.654;2023-10-08T02:50:40;10.90;99.90
20885;DHT22;10602;48.000;9.654;2023-10-08T02:53:08;10.90;99.90
20885;DHT22;10602;48.000;9.654;2023-10-08T02:55:39;10.90;99.90
20885;DHT22;10602;48.000;9.654;2023-10-08T02:58:14;11.00;99.90
20885;DHT22;10602;48.000;9.654;2023-10-08T03:00:42;11.00;99.90
20885;DHT22;10602;48.000;9.654;2023-10-08T03:03:10;11.10;99.90
20885;DHT22;10602;48.000;9.654;2023-10-08T03:05:47;11.00;99.90
20885;DHT22;10602;48.000;9.654;2023-10-08T03:08:15;11.00;99.90
20885;DHT22;10602;48.000;9.654;2023-10-08T03:10:52;11.00;99.90
20885;DHT22;10602;48.000;9.654;2023-10-08T03:13:24;11.00;99.90
20885;DHT22;10602;48.000;9.654;2023-10-08T03:15:53;11.10;99.90
20885;DHT22;10602;48.000;9.654;2023-10-08T03:18:31;11.10;99.90
20885;DHT22;10602;48.000;9.654;2023-10-08T03:21:07;11.00;99.90
20885;DHT22;10602;48.000;9.654;2023-10-08T03:23:49;11.10;99.90
20885;DHT22;10602;48.000;9.654;2023-10-08T03:26:17;11.20;99.90
20885;DHT22;10602;48.000;9.654;2023-10-08T03:29:05;11.20;99.90
20885;DHT22;10602;48.000;9.654;2023-10-08T03:31:37;11.20;99.90
20885;DHT22;10602;48.000;9.654;2023-10-08T03:34:16;11.10;99.90
20885;DHT22;10602;48.000;9.654;2023-10-08T03:36:46;11.10;99.90
20885;DHT22;10602;48.000;9.654;2023-10-08T03:39:16;11.10;99.90
20885;DHT22;10602;48.000;9.654;2023-10-08T03:41:45;11.00;99.90
20885;DHT22;10602;48.000;9.654;2023-10-08T03:44:15;11.00;99.90
20885;DHT22;10602;48.000;9.654;2023-10-08T03:46:43;10.90;99.90
20885;DHT22;10602;48.000;9.654;2023-10-08T03:49:15;11.00;99.90
20885;DHT22;10602;48.000;9.654;2023-10-08T03:51:47;10.90;99.90
20885;DHT22;10602;48.000;9.654;2023-10-08T03:54:17;11.00;99.90
20885;DHT22;10602;48.000;9.654;2023-10-08T03:56:46;10.90;99.90
20885;DHT22;10602;48.000;9.654;2023-10-08T03:59:15;10.80;99.90
20885;DHT22;10602;48.000;9.654;2023-10-08T04:01:58;10.90;99.90
20885;DHT22;10602;48.000;9.654;2023-10-08T04:04:28;10.90;99.90
20885;DHT22;10602;48.000;9.654;2023-10-08T04:06:59;10.90;99.90
20885;DHT22;10602;48.000;9.654;2023-10-08T04:09:28;10.80;99.90
20885;DHT22;10602;48.000;9.654;2023-10-08T04:11:57;10.80;99.90
20885;DHT22;10602;48.000;9.654;2023-10-08T04:14:26;10.70;99.90
20885;DHT22;10602;48.000;9.654;2023-10-08T04:16:54;10.60;99.90
20885;DHT22;10602;48.000;9.654;2023-10-08T04:19:23;10.50;99.90
20885;DHT22;10602;48.000;9.654;2023-10-08T04:21:56;10.50;99.90
20885;DHT22;10602;48.000;9.654;2023-10-08T04:24:27;10.60;99.90
20885;DHT22;10602;48.000;9.654;2023-10-08T04:26:56;10.60;99.90
20885;DHT22;10602;48.000;9.654;2023-10-08T04:29:25;10.60;99.90
20885;DHT22;10602;48.000;9.654;2023-10-08T04:31:52;10.60;99.90
20885;DHT22;10602;48.000;9.654;2023-10-08T04:34:22;10.60;99.90
20885;DHT22;10602;48.000;9.654;2023-10-08T04:36:49;10.60;99.90
20885;DHT22;10602;48.000;9.654;2023-10-08T04:39:18;10.50;99.90
20885;DHT22;10602;48.000;9.654;2023-10-08T04:41:48;10.50;99.90
20885;DHT22;10602;48.000;9.654;2023-10-08T04:44:17;10.50;99.90
20885;DHT22;10602;48.000;9.654;2023-10-08T04:46:45;10.60;99.90
20885;DHT22;10602;48.000;9.654;2023-10-08T04:49:15;10.60;99.90
20885;DHT22;10602;48.000;9.654;2023-10-08T04:51:47;10.70;99.90
20885;DHT22;10602;48.000;9.654;2023-10-08T04:54:15;10.70;99.90
20885;DHT22;10602;48.000;9.654;2023-10-08T04:56:45;10.50;99.90
20885;DHT22;10602;48.000;9.654;2023-10-08T04:59:15;10.50;99.90
20885;DHT22;10602;48.000;9.654;2023-10-08T05:01:44;10.50;99.90
20885;DHT22;10602;48.000;9.654;2023-10-08T05:04:15;10.60;99.90
20885;DHT22;10602;48.000;9.654;2023-10-08T05:06:56;10.50;99.90
20885;DHT22;10602;48.000;9.654;2023-10-08T05:09:42;10.60;99.90
20885;DHT22;10602;48.000;9.654;2023-10-08T05:12:14;10.50;99.90
20885;DHT22;10602;48.000;9.654;2023-10-08T05:14:43;10.50;99.90
20885;DHT22;10602;48.000;9.654;2023-10-08T05:17:12;10.50;99.90
20885;DHT22;10602;48.000;9.654;2023-10-08T05:19:42;10.40;99.90
20885;DHT22;10602;48.000;9.654;2023-10-08T05:22:17;10.40;99.90
20885;DHT22;10602;48.000;9.654;2023-10-08T05:24:49;10.40;99.90
20885;DHT22;10602;48.000;9.654;2023-10-08T05:27:43;10.40;99.90
20885;DHT22;10602;48.000;9.654;2023-10-08T05:30:25;10.40;99.90
20885;DHT22;10602;48.000;9.654;2023-10-08T05:32:58;10.30;99.90
20885;DHT22;10602;48.000;9.654;2023-10-08T05:35:46;10.20;99.90
20885;DHT22;10602;48.000;9.654;2023-10-08T05:38:20;10.20;99.90
20885;DHT22;10602;48.000;9.654;2023-10-08T05:40:59;10.10;99.90
20885;DHT22;10602;48.000;9.654;2023-10-08T05:46:03;10.10;99.90
20885;DHT22;10602;48.000;9.654;2023-10-08T05:48:54;10.20;99.90
20885;DHT22;10602;48.000;9.654;2023-10-08T05:51:37;10.20;99.90
20885;DHT22;10602;48.000;9.654;2023-10-08T05:54:20;10.20;99.90
20885;DHT22;10602;48.000;9.654;2023-10-08T05:56:59;10.20;99.90
20885;DHT22;10602;48.000;9.654;2023-10-08T05:59:45;10.20;99.90
20885;DHT22;10602;48.000;9.654;2023-10-08T06:02:27;10.20;99.90
20885;DHT22;10602;48.000;9.654;2023-10-08T06:05:09;10.30;99.90
20885;DHT22;10602;48.000;9.654;2023-10-08T06:07:43;10.20;99.90
20885;DHT22;10602;48.000;9.654;2023-10-08T06:10:29;10.30;99.90
20885;DHT22;10602;48.000;9.654;2023-10-08T06:13:04;10.30;99.90
20885;DHT22;10602;48.000;9.654;2023-10-08T06:15:47;10.40;99.90
20885;DHT22;10602;48.000;9.654;2023-10-08T06:18:26;10.50;99.90
20885;DHT22;10602;48.000;9.654;2023-10-08T06:20:55;10.40;99.90
20885;DHT22;10602;48.000;9.654;2023-10-08T06:23:25;10.50;99.90
20885;DHT22;10602;48.000;9.654;2023-10-08T06:25:55;10.50;99.90
20885;DHT22;10602;48.000;9.654;2023-10-08T06:28:27;10.60;99.90
20885;DHT22;10602;48.000;9.654;2023-10-08T06:30:56;10.70;99.90
20885;DHT22;10602;48.000;9.654;2023-10-08T06:33:24;10.80;99.90
20885;DHT22;10602;48.000;9.654;2023-10-08T06:35:53;10.70;99.90
20885;DHT22;10602;48.000;9.654;2023-10-08T06:38:33;10.70;99.90
20885;DHT22;10602;48.000;9.654;2023-10-08T06:41:02;10.70;99.90
20885;DHT22;10602;48.000;9.654;2023-10-08T06:43:37;10.80;99.90
20885;DHT22;10602;48.000;9.654;2023-10-08T06:46:05;11.00;99.90
20885;DHT22;10602;48.000;9.654;2023-10-08T06:48:41;11.30;99.90
20885;DHT22;10602;48.000;9.654;2023-10-08T06:51:12;11.50;99.90
20885;DHT22;10602;48.000;9.654;2023-10-08T06:53:41;11.80;99.90
20885;DHT22;10602;48.000;9.654;2023-10-08T06:56:15;12.10;99.90
20885;DHT22;10602;48.000;9.654;2023-10-08T06:58:40;12.40;89.80
20885;DHT22;10602;48.000;9.654;2023-10-08T07:01:09;12.70;66.60
